sensor_id;sensor_type;location;lat;lon;timestamp;pressure;altitude;pressure_sealevel;temperature;humidity
10718;BME280;13513;42.700;23.124;2024-03-23T00:52:18;150157.47;;;4.90;70.83
10718;BME280;13513;42.700;23.124;2024-03-23T00:54:46;150148.47;;;4.87;71.20
10718;BME280;13513;42.700;23.124;2024-03-23T00:57:13;150138.17;;;4.83;71.74
10718;BME280;13513;42.700;23.124;2024-03-23T00:59:41;150127.88;;;4.79;71.73
10718;BME280;13513;42.700;23.124;2024-03-23T01:02:08;150105.97;;;4.70;70.14
10718;BME280;13513;42.700;23.124;2024-03-23T01:04:36;150111.09;;;4.72;70.03
10718;BME280;13513;42.700;23.124;2024-03-23T01:07:04;150113.70;;;4.73;70.81
10718;BME280;13513;42.700;23.124;2024-03-23T01:09:31;150102.11;;;4.69;72.35
10718;BME280;13513;42.700;23.124;2024-03-23T01:11:59;150086.69;;;4.63;71.62
10718;BME280;13513;42.700;23.124;2024-03-23T01:14:27;150081.52;;;4.61;71.21
10718;BME280;13513;42.700;23.124;2024-03-23T01:16:54;150153.59;;;4.89;65.74
10718;BME280;13513;42.700;23.124;2024-03-23T01:19:22;150260.52;;;5.30;61.91
10718;BME280;13513;42.700;23.124;2024-03-23T01:21:49;150314.59;;;5.51;60.21
10718;BME280;13513;42.700;23.124;2024-03-23T01:24:16;150353.25;;;5.66;59.94
10718;BME280;13513;42.700;23.124;2024-03-23T01:26:44;150301.73;;;5.46;60.79
10718;BME280;13513;42.700;23.124;2024-03-23T01:29:11;150328.78;;;5.57;60.45
10718;BME280;13513;42.700;23.124;2024-03-23T01:31:39;150335.20;;;5.59;61.43
10718;BME280;13513;42.700;23.124;2024-03-23T01:34:06;150346.81;;;5.64;60.70
10718;BME280;13513;42.700;23.124;2024-03-23T01:36:34;150345.52;;;5.63;60.98
10718;BME280;13513;42.700;23.124;2024-03-23T01:39:01;150318.47;;;5.53;61.52
10718;BME280;13513;42.700;23.124;2024-03-23T01:41:29;150317.16;;;5.52;60.83
10718;BME280;13513;42.700;23.124;2024-03-23T01:43:57;150293.98;;;5.43;60.94
10718;BME280;13513;42.700;23.124;2024-03-23T01:46:24;150220.56;;;5.15;63.43
10718;BME280;13513;42.700;23.124;2024-03-23T01:48:52;150206.41;;;5.09;65.01
10718;BME280;13513;42.700;23.124;2024-03-23T01:51:21;150170.33;;;4.95;65.91
10718;BME280;13513;42.700;23.124;2024-03-23T01:53:50;150167.77;;;4.94;65.80
10718;BME280;13513;42.700;23.124;2024-03-23T01:56:18;150174.19;;;4.97;66.83
10718;BME280;13513;42.700;23.124;2024-03-23T01:58:45;150188.36;;;5.02;66.71
10718;BME280;13513;42.700;23.124;2024-03-23T02:01:13;150212.83;;;5.12;66.85
10718;BME280;13513;42.700;23.124;2024-03-23T02:03:41;150201.27;;;5.07;67.87
10718;BME280;13513;42.700;23.124;2024-03-23T02:06:09;150219.25;;;5.14;67.26
10718;BME280;13513;42.700;23.124;2024-03-23T02:08:36;150241.17;;;5.23;68.79
10718;BME280;13513;42.700;23.124;2024-03-23T02:11:04;150228.31;;;5.18;66.62
10718;BME280;13513;42.700;23.124;2024-03-23T02:13:31;150233.44;;;5.20;66.94
10718;BME280;13513;42.700;23.124;2024-03-23T02:15:59;150248.91;;;5.26;68.01
10718;BME280;13513;42.700;23.124;2024-03-23T02:18:27;150238.61;;;5.22;67.46
10718;BME280;13513;42.700;23.124;2024-03-23T02:20:55;150196.09;;;5.05;70.04
10718;BME280;13513;42.700;23.124;2024-03-23T02:23:22;150241.17;;;5.23;70.41
10718;BME280;13513;42.700;23.124;2024-03-23T02:25:51;150281.13;;;5.38;70.42
10718;BME280;13513;42.700;23.124;2024-03-23T02:28:20;150265.64;;;5.32;70.22
10718;BME280;13513;42.700;23.124;2024-03-23T02:30:52;150218.00;;;5.14;73.19
10718;BME280;13513;42.700;23.124;2024-03-23T02:33:19;150178.06;;;4.98;78.27
10718;BME280;13513;42.700;23.124;2024-03-23T02:35:47;150254.03;;;5.28;79.58
10718;BME280;13513;42.700;23.124;2024-03-23T02:38:15;150278.52;;;5.37;80.21
10718;BME280;13513;42.700;23.124;2024-03-23T02:40:42;150314.59;;;5.51;79.58
10718;BME280;13513;42.700;23.124;2024-03-23T02:43:09;150313.28;;;5.51;77.89
10718;BME280;13513;42.700;23.124;2024-03-23T02:45:37;150310.72;;;5.50;76.34
10718;BME280;13513;42.700;23.124;2024-03-23T02:48:05;150291.42;;;5.42;73.34
10718;BME280;13513;42.700;23.124;2024-03-23T02:50:33;150225.75;;;5.17;76.17
10718;BME280;13513;42.700;23.124;2024-03-23T02:53:00;150230.87;;;5.19;78.84
10718;BME280;13513;42.700;23.124;2024-03-23T02:55:28;150203.83;;;5.08;80.57
10718;BME280;13513;42.700;23.124;2024-03-23T02:57:55;150194.80;;;5.05;78.58
10718;BME280;13513;42.700;23.124;2024-03-23T03:00:24;150157.47;;;4.90;80.62
10718;BME280;13513;42.700;23.124;2024-03-23T03:02:52;150112.41;;;4.73;83.61
10718;BME280;13513;42.700;23.124;2024-03-23T03:05:19;150125.27;;;4.78;86.14
10718;BME280;13513;42.700;23.124;2024-03-23T03:07:47;150134.30;;;4.81;86.74
10718;BME280;13513;42.700;23.124;2024-03-23T03:10:15;150156.20;;;4.90;88.25
10718;BME280;13513;42.700;23.124;2024-03-23T03:12:42;150151.03;;;4.88;88.92
10718;BME280;13513;42.700;23.124;2024-03-23T03:15:10;150158.77;;;4.91;89.92
10718;BME280;13513;42.700;23.124;2024-03-23T03:17:37;150171.63;;;4.96;85.93
10718;BME280;13513;42.700;23.124;2024-03-23T03:20:05;150142.03;;;4.84;90.17
10718;BME280;13513;42.700;23.124;2024-03-23T03:22:33;150072.53;;;4.57;87.87
10718;BME280;13513;42.700;23.124;2024-03-23T03:25:00;150080.20;;;4.60;86.87
10718;BME280;13513;42.700;23.124;2024-03-23T03:27:29;150084.08;;;4.62;90.97
10718;BME280;13513;42.700;23.124;2024-03-23T03:29:56;150080.20;;;4.60;92.28
10718;BME280;13513;42.700;23.124;2024-03-23T03:32:24;150098.23;;;4.67;92.45
10718;BME280;13513;42.700;23.124;2024-03-23T03:34:52;150076.34;;;4.59;95.26
10718;BME280;13513;42.700;23.124;2024-03-23T03:37:19;150087.94;;;4.63;95.65
10718;BME280;13513;42.700;23.124;2024-03-23T03:39:46;150068.66;;;4.56;95.06
10718;BME280;13513;42.700;23.124;2024-03-23T03:42:15;150067.34;;;4.55;99.38
10718;BME280;13513;42.700;23.124;2024-03-23T03:44:43;150067.34;;;4.55;99.82
10718;BME280;13513;42.700;23.124;2024-03-23T03:47:10;150063.48;;;4.54;98.60
10718;BME280;13513;42.700;23.124;2024-03-23T03:49:37;150036.47;;;4.43;97.45
10718;BME280;13513;42.700;23.124;2024-03-23T03:52:05;150021.00;;;4.37;98.26
10718;BME280;13513;42.700;23.124;2024-03-23T03:54:33;149985.00;;;4.23;99.92
10718;BME280;13513;42.700;23.124;2024-03-23T03:57:01;149987.56;;;4.24;100.00
10718;BME280;13513;42.700;23.124;2024-03-23T03:59:29;149964.42;;;4.15;100.00
10718;BME280;13513;42.700;23.124;2024-03-23T04:01:57;149982.39;;;4.22;100.00
10718;BME280;13513;42.700;23.124;2024-03-23T04:04:24;149990.13;;;4.25;100.00
10718;BME280;13513;42.700;23.124;2024-03-23T04:06:58;149985.00;;;4.23;100.00
10718;BME280;13513;42.700;23.124;2024-03-23T04:09:22;149978.58;;;4.20;100.00
10718;BME280;13513;42.700;23.124;2024-03-23T04:11:49;149957.98;;;4.12;100.00
10718;BME280;13513;42.700;23.124;2024-03-23T04:14:17;149938.66;;;4.05;100.00
10718;BME280;13513;42.700;23.124;2024-03-23T04:16:44;149941.22;;;4.06;100.00
10718;BME280;13513;42.700;23.124;2024-03-23T04:19:12;149963.11;;;4.14;100.00
10718;BME280;13513;42.700;23.124;2024-03-23T04:21:41;149947.66;;;4.08;100.00
10718;BME280;13513;42.700;23.124;2024-03-23T04:24:09;149932.25;;;4.02;100.00
10718;BME280;13513;42.700;23.124;2024-03-23T04:26:44;149893.64;;;3.87;100.00
10718;BME280;13513;42.700;23.124;2024-03-23T04:29:12;149907.80;;;3.93;100.00
10718;BME280;13513;42.700;23.124;2024-03-23T04:31:40;149937.36;;;4.04;100.00
10718;BME280;13513;42.700;23.124;2024-03-23T04:34:07;149965.67;;;4.15;100.00
10718;BME280;13513;42.700;23.124;2024-03-23T04:36:35;149954.12;;;4.11;100.00
10718;BME280;13513;42.700;23.124;2024-03-23T04:39:02;149981.14;;;4.21;100.00
10718;BME280;13513;42.700;23.124;2024-03-23T04:41:30;149996.55;;;4.27;100.00
10718;BME280;13513;42.700;23.124;2024-03-23T04:43:58;150026.17;;;4.39;100.00
10718;BME280;13513;42.700;23.124;2024-03-23T04:46:26;150063.48;;;4.54;100.00
10718;BME280;13513;42.700;23.124;2024-03-23T04:48:54;150051.94;;;4.49;100.00
10718;BME280;13513;42.700;23.124;2024-03-23T04:51:26;150109.84;;;4.72;100.00
10718;BME280;13513;42.700;23.124;2024-03-23T04:53:53;150094.37;;;4.66;99.88
10718;BME280;13513;42.700;23.124;2024-03-23T04:56:21;150050.63;;;4.49;100.00
10718;BME280;13513;42.700;23.124;2024-03-23T04:58:49;150091.81;;;4.65;100.00
10718;BME280;13513;42.700;23.124;2024-03-23T05:01:16;150154.91;;;4.89;100.00
10718;BME280;13513;42.700;23.124;2024-03-23T05:03:44;150242.47;;;5.23;98.22
10718;BME280;13513;42.700;23.124;2024-03-23T05:06:11;150333.91;;;5.59;93.85
10718;BME280;13513;42.700;23.124;2024-03-23T05:08:39;150413.89;;;5.90;91.60
10718;BME280;13513;42.700;23.124;2024-03-23T05:11:06;150513.12;;;6.28;90.73
10718;BME280;13513;42.700;23.124;2024-03-23T05:13:33;150639.50;;;6.77;82.61
10718;BME280;13513;42.700;23.124;2024-03-23T05:16:01;150746.56;;;7.19;75.38
10718;BME280;13513;42.700;23.124;2024-03-23T05:18:29;150835.58;;;7.53;69.65
10718;BME280;13513;42.700;23.124;2024-03-23T05:20:57;150891.13;;;7.75;68.67
10718;BME280;13513;42.700;23.124;2024-03-23T05:23:26;151011.23;;;8.21;66.20
10718;BME280;13513;42.700;23.124;2024-03-23T05:25:54;151101.66;;;8.57;63.17
10718;BME280;13513;42.700;23.124;2024-03-23T05:28:22;151172.73;;;8.84;59.49
10718;BME280;13513;42.700;23.124;2024-03-23T05:30:53;151300.66;;;9.34;58.62
10718;BME280;13513;42.700;23.124;2024-03-23T05:33:22;151420.94;;;9.80;55.76
10718;BME280;13513;42.700;23.124;2024-03-23T05:36:03;151543.88;;;10.28;51.18
10718;BME280;13513;42.700;23.124;2024-03-23T05:38:31;151529.66;;;10.22;51.49
10718;BME280;13513;42.700;23.124;2024-03-23T05:41:00;151550.34;;;10.30;50.91
10718;BME280;13513;42.700;23.124;2024-03-23T05:43:28;151556.81;;;10.33;50.50
10718;BME280;13513;42.700;23.124;2024-03-23T05:45:57;151634.47;;;10.63;49.02
10718;BME280;13513;42.700;23.124;2024-03-23T05:48:27;151640.92;;;10.65;49.07
10718;BME280;13513;42.700;23.124;2024-03-23T05:50:55;151697.89;;;10.87;49.80
10718;BME280;13513;42.700;23.124;2024-03-23T05:53:22;151775.53;;;11.17;48.22
10718;BME280;13513;42.700;23.124;2024-03-23T05:55:51;151694.00;;;10.86;48.30
10718;BME280;13513;42.700;23.124;2024-03-23T05:58:20;151706.94;;;10.91;48.60
10718;BME280;13513;42.700;23.124;2024-03-23T06:00:48;151805.34;;;11.29;47.93
10718;BME280;13513;42.700;23.124;2024-03-23T06:03:15;151841.62;;;11.43;47.45
10718;BME280;13513;42.700;23.124;2024-03-23T06:05:43;151909.00;;;11.69;46.18
10718;BME280;13513;42.700;23.124;2024-03-23T06:08:11;151822.17;;;11.35;47.79
10718;BME280;13513;42.700;23.124;2024-03-23T06:10:39;151967.33;;;11.91;46.74
10718;BME280;13513;42.700;23.124;2024-03-23T06:13:07;152025.61;;;12.14;45.88
10718;BME280;13513;42.700;23.124;2024-03-23T06:15:34;152115.03;;;12.49;45.31
10718;BME280;13513;42.700;23.124;2024-03-23T06:18:04;152170.81;;;12.70;44.18
10718;BME280;13513;42.700;23.124;2024-03-23T06:20:32;152277.17;;;13.11;45.06
10718;BME280;13513;42.700;23.124;2024-03-23T06:23:00;152380.97;;;13.51;42.69
10718;BME280;13513;42.700;23.124;2024-03-23T06:25:28;152500.38;;;13.97;42.07
10718;BME280;13513;42.700;23.124;2024-03-23T06:27:55;152547.06;;;14.15;40.63
10718;BME280;13513;42.700;23.124;2024-03-23T06:30:25;152457.53;;;13.81;41.14
10718;BME280;13513;42.700;23.124;2024-03-23T06:32:53;152405.62;;;13.61;42.14
10718;BME280;13513;42.700;23.124;2024-03-23T06:35:20;152410.80;;;13.63;42.00
10718;BME280;13513;42.700;23.124;2024-03-23T06:37:48;152366.70;;;13.46;41.30
10718;BME280;13513;42.700;23.124;2024-03-23T06:40:15;152343.31;;;13.37;42.04
10718;BME280;13513;42.700;23.124;2024-03-23T06:42:43;152268.11;;;13.08;43.35
10718;BME280;13513;42.700;23.124;2024-03-23T06:45:10;152218.78;;;12.89;43.50
10718;BME280;13513;42.700;23.124;2024-03-23T06:47:38;152274.59;;;13.10;43.28
10718;BME280;13513;42.700;23.124;2024-03-23T06:50:06;152252.53;;;13.02;43.91
10718;BME280;13513;42.700;23.124;2024-03-23T06:52:34;152330.36;;;13.32;42.41
10718;BME280;13513;42.700;23.124;2024-03-23T06:55:02;152470.48;;;13.86;41.57
10718;BME280;13513;42.700;23.124;2024-03-23T06:57:31;152526.30;;;14.07;40.97
10718;BME280;13513;42.700;23.124;2024-03-23T06:59:58;152622.44;;;14.44;40.88
10718;BME280;13513;42.700;23.124;2024-03-23T07:02:26;152558.77;;;14.20;42.13
10718;BME280;13513;42.700;23.124;2024-03-23T07:04:54;152599.03;;;14.35;40.78
10718;BME280;13513;42.700;23.124;2024-03-23T07:07:22;152500.38;;;13.97;41.36
10718;BME280;13513;42.700;23.124;2024-03-23T07:09:49;152718.50;;;14.81;41.14
10718;BME280;13513;42.700;23.124;2024-03-23T07:12:19;152722.41;;;14.83;40.24
10718;BME280;13513;42.700;23.124;2024-03-23T07:14:47;152743.19;;;14.91;40.95
10718;BME280;13513;42.700;23.124;2024-03-23T07:17:14;152908.25;;;15.54;39.66
10718;BME280;13513;42.700;23.124;2024-03-23T07:19:42;152934.27;;;15.64;38.61
10718;BME280;13513;42.700;23.124;2024-03-23T07:22:09;152991.47;;;15.86;38.94
10718;BME280;13513;42.700;23.124;2024-03-23T07:24:37;153082.48;;;16.22;39.04
10718;BME280;13513;42.700;23.124;2024-03-23T07:27:05;153139.72;;;16.44;37.23
10718;BME280;13513;42.700;23.124;2024-03-23T07:29:35;153013.53;;;15.95;38.16
10718;BME280;13513;42.700;23.124;2024-03-23T07:32:03;152995.33;;;15.88;38.71
10718;BME280;13513;42.700;23.124;2024-03-23T07:34:30;153078.58;;;16.20;38.33
10718;BME280;13513;42.700;23.124;2024-03-23T07:36:58;153414.31;;;17.49;36.35
10718;BME280;13513;42.700;23.124;2024-03-23T07:39:25;153431.23;;;17.56;36.04
10718;BME280;13513;42.700;23.124;2024-03-23T07:41:54;153487.25;;;17.77;35.78
10718;BME280;13513;42.700;23.124;2024-03-23T07:44:21;153680.05;;;18.51;33.90
10718;BME280;13513;42.700;23.124;2024-03-23T07:46:49;153445.55;;;17.61;36.06
10718;BME280;13513;42.700;23.124;2024-03-23T07:49:16;153317.98;;;17.12;36.51
10718;BME280;13513;42.700;23.124;2024-03-23T07:51:44;153330.98;;;17.17;36.55
10718;BME280;13513;42.700;23.124;2024-03-23T07:54:12;153608.34;;;18.24;35.28
10718;BME280;13513;42.700;23.124;2024-03-23T07:56:39;153866.39;;;19.23;33.47
10718;BME280;13513;42.700;23.124;2024-03-23T07:59:07;153961.63;;;19.59;32.92
10718;BME280;13513;42.700;23.124;2024-03-23T08:01:34;153786.86;;;18.92;33.45
10718;BME280;13513;42.700;23.124;2024-03-23T08:04:02;153799.94;;;18.97;32.54
10718;BME280;13513;42.700;23.124;2024-03-23T08:06:29;153677.45;;;18.50;34.41
10718;BME280;13513;42.700;23.124;2024-03-23T08:08:57;153403.91;;;17.45;35.40
10718;BME280;13513;42.700;23.124;2024-03-23T08:11:29;153582.31;;;18.14;35.14
10718;BME280;13513;42.700;23.124;2024-03-23T08:13:58;153634.41;;;18.34;34.97
10718;BME280;13513;42.700;23.124;2024-03-23T08:16:25;153780.36;;;18.90;34.03
10718;BME280;13513;42.700;23.124;2024-03-23T08:18:54;154013.77;;;19.80;33.18
10718;BME280;13513;42.700;23.124;2024-03-23T08:21:24;154045.06;;;19.92;32.51
10718;BME280;13513;42.700;23.124;2024-03-23T08:23:52;153979.87;;;19.67;31.70
10718;BME280;13513;42.700;23.124;2024-03-23T08:26:20;153940.77;;;19.51;32.58
10718;BME280;13513;42.700;23.124;2024-03-23T08:28:47;153934.25;;;19.49;32.23
10718;BME280;13513;42.700;23.124;2024-03-23T08:31:15;153897.72;;;19.35;32.38
10718;BME280;13513;42.700;23.124;2024-03-23T08:33:42;154290.42;;;20.86;31.05
10718;BME280;13513;42.700;23.124;2024-03-23T08:36:11;154285.17;;;20.84;30.32
10718;BME280;13513;42.700;23.124;2024-03-23T08:38:40;154316.55;;;20.96;31.20
10718;BME280;13513;42.700;23.124;2024-03-23T08:41:10;154643.09;;;22.21;28.28
10718;BME280;13513;42.700;23.124;2024-03-23T08:43:40;154656.16;;;22.26;29.72
10718;BME280;13513;42.700;23.124;2024-03-23T08:46:09;155377.00;;;25.02;25.70
10718;BME280;13513;42.700;23.124;2024-03-23T08:48:39;155623.31;;;25.96;24.73
10718;BME280;13513;42.700;23.124;2024-03-23T08:51:09;155940.59;;;27.17;22.95
10718;BME280;13513;42.700;23.124;2024-03-23T08:53:37;156167.61;;;28.04;21.66
10718;BME280;13513;42.700;23.124;2024-03-23T08:56:06;156032.44;;;27.52;21.39
10718;BME280;13513;42.700;23.124;2024-03-23T08:58:35;156595.72;;;29.67;21.50
10718;BME280;13513;42.700;23.124;2024-03-23T09:01:13;157029.59;;;31.32;19.58
10718;BME280;13513;42.700;23.124;2024-03-23T09:03:40;157545.56;;;33.28;18.16
10718;BME280;13513;42.700;23.124;2024-03-23T09:06:10;158054.31;;;35.22;16.70
10718;BME280;13513;42.700;23.124;2024-03-23T09:08:38;157984.47;;;34.95;17.00
10718;BME280;13513;42.700;23.124;2024-03-23T09:11:11;158031.89;;;35.13;15.64
10718;BME280;13513;42.700;23.124;2024-03-23T09:13:39;157976.55;;;34.92;16.07
10718;BME280;13513;42.700;23.124;2024-03-23T09:16:09;157392.81;;;32.70;16.48
10718;BME280;13513;42.700;23.124;2024-03-23T09:18:38;157271.69;;;32.24;17.18
10718;BME280;13513;42.700;23.124;2024-03-23T09:21:13;157552.13;;;33.31;16.23
10718;BME280;13513;42.700;23.124;2024-03-23T09:23:45;157988.42;;;34.97;14.80
10718;BME280;13513;42.700;23.124;2024-03-23T09:26:13;157502.09;;;33.12;14.29
10718;BME280;13513;42.700;23.124;2024-03-23T09:28:41;157251.92;;;32.17;15.45
10718;BME280;13513;42.700;23.124;2024-03-23T09:31:09;157092.70;;;31.56;16.44
10718;BME280;13513;42.700;23.124;2024-03-23T09:33:39;157376.98;;;32.64;14.99
10718;BME280;13513;42.700;23.124;2024-03-23T09:36:07;157577.22;;;33.41;13.72
10718;BME280;13513;42.700;23.124;2024-03-23T09:38:35;157485.00;;;33.05;14.36
10718;BME280;13513;42.700;23.124;2024-03-23T09:41:08;157882.91;;;34.57;14.49
10718;BME280;13513;42.700;23.124;2024-03-23T09:43:36;157071.66;;;31.48;14.54
10718;BME280;13513;42.700;23.124;2024-03-23T09:46:04;156363.22;;;28.78;15.47
10718;BME280;13513;42.700;23.124;2024-03-23T09:48:33;156273.95;;;28.44;16.34
10718;BME280;13513;42.700;23.124;2024-03-23T09:51:02;156116.42;;;27.84;16.74
10718;BME280;13513;42.700;23.124;2024-03-23T09:53:31;155983.92;;;27.34;17.08
10718;BME280;13513;42.700;23.124;2024-03-23T09:55:59;156010.13;;;27.44;17.92
10718;BME280;13513;42.700;23.124;2024-03-23T09:58:27;156098.00;;;27.77;16.81
10718;BME280;13513;42.700;23.124;2024-03-23T10:00:54;156494.56;;;29.28;17.76
10718;BME280;13513;42.700;23.124;2024-03-23T10:03:22;156732.44;;;30.19;15.47
10718;BME280;13513;42.700;23.124;2024-03-23T10:06:03;157074.28;;;31.49;15.54
10718;BME280;13513;42.700;23.124;2024-03-23T10:08:31;157282.20;;;32.28;15.17
10718;BME280;13513;42.700;23.124;2024-03-23T10:11:22;157079.56;;;31.51;15.97
10718;BME280;13513;42.700;23.124;2024-03-23T10:13:30;156171.55;;;28.05;17.48
10718;BME280;13513;42.700;23.124;2024-03-23T10:15:58;155678.38;;;26.17;18.84
10718;BME280;13513;42.700;23.124;2024-03-23T10:18:26;155210.72;;;24.38;22.06
10718;BME280;13513;42.700;23.124;2024-03-23T10:21:09;154907.20;;;23.22;21.48
10718;BME280;13513;42.700;23.124;2024-03-23T10:23:40;154788.20;;;22.76;22.57
10718;BME280;13513;42.700;23.124;2024-03-23T10:26:21;154627.41;;;22.15;22.75
10718;BME280;13513;42.700;23.124;2024-03-23T10:28:58;154316.55;;;20.96;27.19
10718;BME280;13513;42.700;23.124;2024-03-23T10:31:23;154182.08;;;20.44;26.92
10718;BME280;13513;42.700;23.124;2024-03-23T10:33:51;154165.13;;;20.38;27.89
10718;BME280;13513;42.700;23.124;2024-03-23T10:36:21;154035.95;;;19.88;28.48
10718;BME280;13513;42.700;23.124;2024-03-23T10:38:51;154029.44;;;19.86;26.15
10718;BME280;13513;42.700;23.124;2024-03-23T10:41:19;154080.28;;;20.05;25.81
10718;BME280;13513;42.700;23.124;2024-03-23T10:43:48;154112.95;;;20.18;24.33
10718;BME280;13513;42.700;23.124;2024-03-23T10:46:16;154099.92;;;20.13;25.85
10718;BME280;13513;42.700;23.124;2024-03-23T10:48:44;154096.00;;;20.11;24.80
10718;BME280;13513;42.700;23.124;2024-03-23T10:51:12;154127.30;;;20.23;24.17
10718;BME280;13513;42.700;23.124;2024-03-23T10:53:41;154186.00;;;20.46;26.73
10718;BME280;13513;42.700;23.124;2024-03-23T10:56:10;154153.36;;;20.33;26.65
10718;BME280;13513;42.700;23.124;2024-03-23T10:58:47;154152.09;;;20.33;27.05
10718;BME280;13513;42.700;23.124;2024-03-23T11:01:12;154109.03;;;20.16;26.34
10718;BME280;13513;42.700;23.124;2024-03-23T11:03:45;154092.09;;;20.10;27.80
10718;BME280;13513;42.700;23.124;2024-03-23T11:08:55;154047.66;;;19.93;25.89
10718;BME280;13513;42.700;23.124;2024-03-23T11:11:24;153990.31;;;19.71;25.80
10718;BME280;13513;42.700;23.124;2024-03-23T11:13:53;154012.44;;;19.79;26.16
10718;BME280;13513;42.700;23.124;2024-03-23T11:16:25;154089.44;;;20.09;25.46
10718;BME280;13513;42.700;23.124;2024-03-23T11:19:34;154037.22;;;19.89;24.08
10718;BME280;13513;42.700;23.124;2024-03-23T11:22:04;153930.33;;;19.47;23.75
10718;BME280;13513;42.700;23.124;2024-03-23T11:24:33;154101.19;;;20.13;23.73
10718;BME280;13513;42.700;23.124;2024-03-23T11:27:01;154179.48;;;20.43;23.43
10718;BME280;13513;42.700;23.124;2024-03-23T11:29:30;154131.22;;;20.25;23.94
10718;BME280;13513;42.700;23.124;2024-03-23T11:31:58;154144.25;;;20.30;22.91
10718;BME280;13513;42.700;23.124;2024-03-23T11:34:27;154020.28;;;19.82;22.99
10718;BME280;13513;42.700;23.124;2024-03-23T11:37:04;153874.28;;;19.26;23.26
10718;BME280;13513;42.700;23.124;2024-03-23T11:39:32;154075.08;;;20.03;24.16
10718;BME280;13513;42.700;23.124;2024-03-23T11:42:00;154059.41;;;19.97;23.29
10718;BME280;13513;42.700;23.124;2024-03-23T11:44:27;154141.66;;;20.29;25.03
10718;BME280;13513;42.700;23.124;2024-03-23T11:47:07;154272.14;;;20.79;23.30
10718;BME280;13513;42.700;23.124;2024-03-23T11:49:29;154303.45;;;20.91;24.25
10718;BME280;13513;42.700;23.124;2024-03-23T11:51:57;154435.38;;;21.41;22.24
10718;BME280;13513;42.700;23.124;2024-03-23T11:54:26;154470.64;;;21.55;22.39
10718;BME280;13513;42.700;23.124;2024-03-23T11:57:01;154772.50;;;22.70;20.66
10718;BME280;13513;42.700;23.124;2024-03-23T11:59:38;154714.98;;;22.48;20.86
10718;BME280;13513;42.700;23.124;2024-03-23T12:02:10;154447.09;;;21.46;20.37
10718;BME280;13513;42.700;23.124;2024-03-23T12:04:40;154816.92;;;22.87;19.96
10718;BME280;13513;42.700;23.124;2024-03-23T12:07:16;154781.63;;;22.74;19.93
10718;BME280;13513;42.700;23.124;2024-03-23T12:09:46;154585.59;;;21.99;21.39
10718;BME280;13513;42.700;23.124;2024-03-23T12:12:16;154311.34;;;20.94;21.89
10718;BME280;13513;42.700;23.124;2024-03-23T12:14:45;154170.36;;;20.40;24.25
10718;BME280;13513;42.700;23.124;2024-03-23T12:17:15;154102.52;;;20.14;21.93
10718;BME280;13513;42.700;23.124;2024-03-23T12:19:43;153919.91;;;19.43;21.42
10718;BME280;13513;42.700;23.124;2024-03-23T12:22:12;153841.62;;;19.13;22.41
10718;BME280;13513;42.700;23.124;2024-03-23T12:24:39;153779.08;;;18.89;22.72
10718;BME280;13513;42.700;23.124;2024-03-23T12:27:08;153622.67;;;18.29;23.50
10718;BME280;13513;42.700;23.124;2024-03-23T12:29:36;153622.67;;;18.29;24.75
10718;BME280;13513;42.700;23.124;2024-03-23T12:32:05;153717.81;;;18.66;26.00
10718;BME280;13513;42.700;23.124;2024-03-23T12:34:33;153839.03;;;19.12;24.34
10718;BME280;13513;42.700;23.124;2024-03-23T12:37:01;153913.39;;;19.41;23.58
10718;BME280;13513;42.700;23.124;2024-03-23T12:39:29;153964.22;;;19.60;24.41
10718;BME280;13513;42.700;23.124;2024-03-23T12:41:56;154022.87;;;19.83;23.16
10718;BME280;13513;42.700;23.124;2024-03-23T12:44:24;153996.83;;;19.73;23.19
10718;BME280;13513;42.700;23.124;2024-03-23T12:46:51;154015.09;;;19.80;22.66
10718;BME280;13513;42.700;23.124;2024-03-23T12:49:19;153816.86;;;19.04;22.64
10718;BME280;13513;42.700;23.124;2024-03-23T12:51:53;153669.63;;;18.47;23.35
10718;BME280;13513;42.700;23.124;2024-03-23T12:54:17;153742.58;;;18.75;24.18
10718;BME280;13513;42.700;23.124;2024-03-23T12:56:46;153815.53;;;19.03;25.86
10718;BME280;13513;42.700;23.124;2024-03-23T12:59:13;153923.81;;;19.45;23.98
10718;BME280;13513;42.700;23.124;2024-03-23T13:01:43;154019.00;;;19.82;25.65
10718;BME280;13513;42.700;23.124;2024-03-23T13:04:10;154103.84;;;20.14;25.37
10718;BME280;13513;42.700;23.124;2024-03-23T13:06:38;154183.39;;;20.45;22.43
10718;BME280;13513;42.700;23.124;2024-03-23T13:09:06;154179.48;;;20.43;23.42
10718;BME280;13513;42.700;23.124;2024-03-23T13:11:33;154336.16;;;21.03;25.90
10718;BME280;13513;42.700;23.124;2024-03-23T13:14:01;154541.22;;;21.82;25.27
10718;BME280;13513;42.700;23.124;2024-03-23T13:16:30;154750.27;;;22.62;23.53
10718;BME280;13513;42.700;23.124;2024-03-23T13:18:58;154897.97;;;23.18;21.61
10718;BME280;13513;42.700;23.124;2024-03-23T13:21:27;155150.53;;;24.15;22.58
10718;BME280;13513;42.700;23.124;2024-03-23T13:23:55;155174.06;;;24.24;19.64
10718;BME280;13513;42.700;23.124;2024-03-23T13:26:22;155181.92;;;24.27;20.09
10718;BME280;13513;42.700;23.124;2024-03-23T13:28:50;155170.19;;;24.23;20.09
10718;BME280;13513;42.700;23.124;2024-03-23T13:31:17;155049.77;;;23.77;20.94
10718;BME280;13513;42.700;23.124;2024-03-23T13:33:44;155028.80;;;23.69;21.30
10718;BME280;13513;42.700;23.124;2024-03-23T13:36:12;154937.25;;;23.34;23.55
10718;BME280;13513;42.700;23.124;2024-03-23T13:38:40;155151.86;;;24.16;23.95
10718;BME280;13513;42.700;23.124;2024-03-23T13:41:07;155130.92;;;24.08;21.14
10718;BME280;13513;42.700;23.124;2024-03-23T13:43:36;155193.72;;;24.32;22.08